createdAt,value
2018-09-23T00:02:21.156Z,20.65
2018-09-23T00:04:49.232Z,21.07
2018-09-23T00:07:17.291Z,20.57
2018-09-23T00:09:45.319Z,21.65
2018-09-23T00:12:13.550Z,20.85
2018-09-23T00:14:41.623Z,20.00
2018-09-23T00:17:09.673Z,20.40
2018-09-23T00:19:37.759Z,21.40
2018-09-23T00:22:06.069Z,21.90
2018-09-23T00:24:34.088Z,21.68
2018-09-23T00:27:02.124Z,22.80
2018-09-23T00:29:35.700Z,22.32
2018-09-23T00:32:03.787Z,22.50
2018-09-23T00:34:31.850Z,22.93
2018-09-23T00:36:59.906Z,23.45
2018-09-23T00:39:27.957Z,24.57
2018-09-23T00:41:56.008Z,25.30
2018-09-23T00:44:24.076Z,28.73
2018-09-23T00:46:52.123Z,25.77
2018-09-23T00:49:20.156Z,26.75
2018-09-23T00:51:48.184Z,27.05
2018-09-23T00:54:16.228Z,28.00
2018-09-23T00:56:44.276Z,28.38
2018-09-23T00:59:12.393Z,29.72
2018-09-23T01:01:40.428Z,31.15
2018-09-23T01:04:08.469Z,30.88
2018-09-23T01:06:36.505Z,31.82
2018-09-23T01:09:06.693Z,32.70
2018-09-23T01:11:34.724Z,32.30
2018-09-23T01:14:02.764Z,35.35
2018-09-23T01:16:30.808Z,35.80
2018-09-23T01:18:58.893Z,36.28
2018-09-23T01:21:26.933Z,37.87
2018-09-23T01:23:55.039Z,37.90
2018-09-23T01:26:23.345Z,38.57
2018-09-23T01:28:51.390Z,39.75
2018-09-23T01:31:19.543Z,40.70
2018-09-23T01:33:47.585Z,40.88
2018-09-23T01:36:15.604Z,41.30
2018-09-23T01:38:43.695Z,47.55
2018-09-23T01:41:11.744Z,42.58
2018-09-23T01:43:39.812Z,42.48
2018-09-23T01:46:07.844Z,42.47
2018-09-23T01:48:35.884Z,44.30
2018-09-23T01:51:03.909Z,44.03
2018-09-23T01:53:31.940Z,44.05
2018-09-23T01:56:00.013Z,45.48
2018-09-23T01:58:28.041Z,47.17
2018-09-23T02:00:56.060Z,47.65
2018-09-23T02:03:24.084Z,46.15
2018-09-23T02:05:52.126Z,46.42
2018-09-23T02:08:20.149Z,46.80
2018-09-23T02:10:48.188Z,49.08
2018-09-23T02:13:16.275Z,47.90
2018-09-23T02:15:44.236Z,49.08
2018-09-23T02:18:12.285Z,49.25
2018-09-23T02:20:40.338Z,50.80
2018-09-23T02:23:08.377Z,48.58
2018-09-23T02:25:36.444Z,49.23
2018-09-23T02:28:04.480Z,49.33
2018-09-23T02:30:32.528Z,50.90
2018-09-23T02:33:00.565Z,52.33
2018-09-23T02:35:28.621Z,51.33
2018-09-23T02:37:56.660Z,51.07
2018-09-23T02:40:24.729Z,48.95
2018-09-23T02:42:52.791Z,46.60
2018-09-23T02:45:20.809Z,45.80
2018-09-23T02:47:48.861Z,43.63
2018-09-23T02:50:16.919Z,43.67
2018-09-23T02:52:44.991Z,43.42
2018-09-23T02:55:13.036Z,43.25
2018-09-23T02:57:41.077Z,41.08
2018-09-23T03:00:09.123Z,40.00
2018-09-23T03:02:37.167Z,39.20
2018-09-23T03:05:05.200Z,39.65
2018-09-23T03:07:33.232Z,39.78
2018-09-23T03:10:01.268Z,37.67
2018-09-23T03:12:29.320Z,40.05
2018-09-23T03:14:57.364Z,38.63
2018-09-23T03:17:25.404Z,39.85
2018-09-23T03:19:53.448Z,38.40
2018-09-23T03:22:21.481Z,37.93
2018-09-23T03:24:49.549Z,39.00
2018-09-23T03:27:17.584Z,38.63
2018-09-23T03:29:45.656Z,39.70
2018-09-23T03:32:13.702Z,38.17
2018-09-23T03:34:41.733Z,38.80
2018-09-23T03:37:09.796Z,38.88
2018-09-23T03:39:37.860Z,39.90
2018-09-23T03:42:05.892Z,39.55
2018-09-23T03:44:33.921Z,40.73
2018-09-23T03:47:01.977Z,40.17
2018-09-23T03:49:30.029Z,39.98
2018-09-23T03:51:58.068Z,41.83
2018-09-23T03:54:26.108Z,40.75
2018-09-23T03:56:54.142Z,42.70
2018-09-23T03:59:22.203Z,42.93
2018-09-23T04:01:50.264Z,42.85
2018-09-23T04:04:18.299Z,43.40
2018-09-23T04:06:46.353Z,43.65
2018-09-23T04:09:14.389Z,44.03
2018-09-23T04:11:42.424Z,47.35
2018-09-23T04:14:10.461Z,46.55
2018-09-23T04:16:38.529Z,44.88
2018-09-23T04:19:06.588Z,48.30
2018-09-23T04:21:34.612Z,44.58
2018-09-23T04:24:02.648Z,45.98
2018-09-23T04:26:30.694Z,46.65
2018-09-23T04:28:58.721Z,45.83
2018-09-23T04:31:26.793Z,44.77
2018-09-23T04:33:54.831Z,47.35
2018-09-23T04:36:22.864Z,46.25
2018-09-23T04:38:50.905Z,45.75
2018-09-23T04:41:18.987Z,43.70
2018-09-23T04:43:47.031Z,47.20
2018-09-23T04:46:15.083Z,46.92
2018-09-23T04:48:43.113Z,46.50
2018-09-23T04:51:11.165Z,43.83
2018-09-23T04:53:39.203Z,44.03
2018-09-23T04:56:07.286Z,43.52
2018-09-23T04:58:35.325Z,43.13
2018-09-23T05:01:03.369Z,41.95
2018-09-23T05:03:31.396Z,44.25
2018-09-23T05:05:59.450Z,43.55
2018-09-23T05:08:27.475Z,42.95
2018-09-23T05:10:55.534Z,43.47
2018-09-23T05:13:23.609Z,46.35
2018-09-23T05:15:51.721Z,44.40
2018-09-23T05:18:19.754Z,45.25
2018-09-23T05:20:47.797Z,46.58
2018-09-23T05:23:15.821Z,47.75
2018-09-23T05:25:43.929Z,44.58
2018-09-23T05:28:11.953Z,46.13
2018-09-23T05:30:39.993Z,46.02
2018-09-23T05:33:08.037Z,47.05
2018-09-23T05:35:36.059Z,46.70
2018-09-23T05:38:04.113Z,45.33
2018-09-23T05:40:32.161Z,46.67
2018-09-23T05:43:00.218Z,45.75
2018-09-23T05:45:28.521Z,49.65
2018-09-23T05:47:56.588Z,47.67
2018-09-23T05:50:24.648Z,46.50
2018-09-23T05:52:52.697Z,47.17
2018-09-23T05:55:20.764Z,47.35
2018-09-23T05:57:48.785Z,49.83
2018-09-23T06:00:17.259Z,49.80
2018-09-23T06:02:45.309Z,49.83
2018-09-23T06:05:13.312Z,51.25
2018-09-23T06:07:41.347Z,51.95
2018-09-23T06:10:09.441Z,49.48
2018-09-23T06:12:37.460Z,49.23
2018-09-23T06:15:05.500Z,48.87
2018-09-23T06:17:33.518Z,49.18
2018-09-23T06:20:01.551Z,49.15
2018-09-23T06:22:29.585Z,48.50
2018-09-23T06:24:57.605Z,44.57
2018-09-23T06:27:25.661Z,45.45
2018-09-23T06:29:53.695Z,45.52
2018-09-23T06:32:21.712Z,43.65
2018-09-23T06:34:49.769Z,40.67
2018-09-23T06:37:17.804Z,43.47
2018-09-23T06:39:45.844Z,41.53
2018-09-23T06:42:13.874Z,40.60
2018-09-23T06:44:41.902Z,41.48
2018-09-23T06:47:09.944Z,41.68
2018-09-23T06:49:37.977Z,41.37
2018-09-23T06:52:06.399Z,43.25
2018-09-23T06:54:34.438Z,41.83
2018-09-23T06:57:02.495Z,41.40
2018-09-23T06:59:30.501Z,37.80
2018-09-23T07:01:58.529Z,39.27
2018-09-23T07:04:26.666Z,38.10
2018-09-23T07:06:54.621Z,39.10
2018-09-23T07:09:22.650Z,39.13
2018-09-23T07:11:50.668Z,38.70
2018-09-23T07:14:18.738Z,37.80
2018-09-23T07:16:46.756Z,36.50
2018-09-23T07:19:14.776Z,36.13
2018-09-23T07:21:42.801Z,37.08
2018-09-23T07:24:10.891Z,37.13
2018-09-23T07:26:38.880Z,37.30
2018-09-23T07:29:07.785Z,38.38
2018-09-23T07:31:35.844Z,37.58
2018-09-23T07:34:03.896Z,37.38
2018-09-23T07:36:31.956Z,37.10
2018-09-23T07:39:00.021Z,36.35
2018-09-23T07:41:28.057Z,39.03
2018-09-23T07:43:56.121Z,34.18
2018-09-23T07:46:24.176Z,34.58
2018-09-23T07:48:52.233Z,32.55
2018-09-23T07:51:20.305Z,35.70
2018-09-23T07:53:48.335Z,33.65
2018-09-23T07:56:16.464Z,32.50
2018-09-23T07:58:44.517Z,32.57
2018-09-23T08:01:12.575Z,31.93
2018-09-23T08:03:40.634Z,33.78
2018-09-23T08:06:08.681Z,33.90
2018-09-23T08:08:36.767Z,33.38
2018-09-23T08:11:04.801Z,32.85
2018-09-23T08:13:33.060Z,34.58
2018-09-23T08:16:00.914Z,31.90
2018-09-23T08:18:28.984Z,30.53
2018-09-23T08:20:57.070Z,31.23
2018-09-23T08:23:25.143Z,32.33
2018-09-23T08:25:53.180Z,30.10
2018-09-23T08:28:21.239Z,31.60
2018-09-23T08:30:49.278Z,29.07
2018-09-23T08:33:17.342Z,31.05
2018-09-23T08:35:45.376Z,30.17
2018-09-23T08:38:13.409Z,30.50
2018-09-23T08:40:41.473Z,29.27
2018-09-23T08:43:09.597Z,28.98
2018-09-23T08:45:37.577Z,28.90
2018-09-23T08:48:05.705Z,28.85
2018-09-23T08:50:33.632Z,28.87
2018-09-23T08:53:01.667Z,30.20
2018-09-23T08:55:29.704Z,30.60
2018-09-23T08:57:57.728Z,30.37
2018-09-23T09:00:25.788Z,29.63
2018-09-23T09:02:54.077Z,29.23
2018-09-23T09:05:22.136Z,29.60
2018-09-23T09:07:50.170Z,30.30
2018-09-23T09:10:18.193Z,29.75
2018-09-23T09:12:46.307Z,30.00
2018-09-23T09:15:14.328Z,28.73
2018-09-23T09:17:42.344Z,28.23
2018-09-23T09:20:10.405Z,26.30
2018-09-23T09:22:38.442Z,25.65
2018-09-23T09:25:06.505Z,26.10
2018-09-23T09:27:34.521Z,26.70
2018-09-23T09:30:02.573Z,28.52
2018-09-23T09:32:30.624Z,25.90
2018-09-23T09:34:58.653Z,25.27
2018-09-23T09:37:26.705Z,24.85
2018-09-23T09:39:54.761Z,25.70
2018-09-23T09:42:22.821Z,24.47
2018-09-23T09:44:50.859Z,23.25
2018-09-23T09:47:18.914Z,22.15
2018-09-23T09:49:46.958Z,21.97
2018-09-23T09:52:14.997Z,22.95
2018-09-23T09:54:43.124Z,24.67
2018-09-23T09:57:11.164Z,25.25
2018-09-23T09:59:39.216Z,25.00
2018-09-23T10:02:07.246Z,22.70
2018-09-23T10:04:35.289Z,23.75
2018-09-23T10:07:03.340Z,25.10
2018-09-23T10:09:31.395Z,25.13
2018-09-23T10:11:59.461Z,24.47
2018-09-23T10:14:27.525Z,25.05
2018-09-23T10:16:55.553Z,24.40
2018-09-23T10:19:23.609Z,23.00
2018-09-23T10:21:51.657Z,23.83
2018-09-23T10:24:19.696Z,21.48
2018-09-23T10:26:47.756Z,21.27
2018-09-23T10:29:15.796Z,22.60
2018-09-23T10:31:43.850Z,23.62
2018-09-23T10:34:11.897Z,22.00
2018-09-23T10:36:39.946Z,22.90
2018-09-23T10:39:09.162Z,23.07
2018-09-23T10:41:37.222Z,23.75
2018-09-23T10:44:05.704Z,22.58
2018-09-23T10:46:34.068Z,25.00
2018-09-23T10:49:02.242Z,21.30
2018-09-23T10:51:30.345Z,21.05
2018-09-23T10:53:58.383Z,20.50
2018-09-23T10:56:26.433Z,19.53
2018-09-23T10:58:54.469Z,19.87
2018-09-23T11:01:22.571Z,20.25
2018-09-23T11:03:50.659Z,19.87
2018-09-23T11:06:18.685Z,18.52
2018-09-23T11:08:46.822Z,18.80
2018-09-23T11:11:14.864Z,17.85
2018-09-23T11:13:42.910Z,21.30
2018-09-23T11:16:10.924Z,19.07
2018-09-23T11:18:38.989Z,19.55
2018-09-23T11:21:07.040Z,18.75
2018-09-23T11:23:35.107Z,19.10
2018-09-23T11:26:03.294Z,19.42
2018-09-23T11:28:31.356Z,19.55
2018-09-23T11:30:59.408Z,20.35
2018-09-23T11:33:27.436Z,20.20
2018-09-23T11:35:55.457Z,20.27
2018-09-23T11:38:23.529Z,20.10
2018-09-23T11:40:51.555Z,19.82
2018-09-23T11:43:19.604Z,18.82
2018-09-23T11:45:47.636Z,19.30
2018-09-23T11:48:15.665Z,18.85
2018-09-23T11:50:43.708Z,21.97
2018-09-23T11:53:11.769Z,19.82
2018-09-23T11:55:39.785Z,20.60
2018-09-23T11:58:07.835Z,19.37
2018-09-23T12:00:35.864Z,19.35
2018-09-23T12:03:03.892Z,20.43
2018-09-23T12:05:31.925Z,18.23
2018-09-23T12:07:59.964Z,19.42
2018-09-23T12:10:28.023Z,20.70
2018-09-23T12:12:56.044Z,17.48
2018-09-23T12:15:24.104Z,17.92
2018-09-23T12:17:52.177Z,19.73
2018-09-23T12:20:20.356Z,17.37
2018-09-23T12:22:48.381Z,18.23
2018-09-23T12:25:16.407Z,17.37
2018-09-23T12:27:44.421Z,18.90
2018-09-23T12:30:12.456Z,19.05
2018-09-23T12:32:40.500Z,18.77
2018-09-23T12:35:08.540Z,21.07
2018-09-23T12:37:36.592Z,20.97
2018-09-23T12:40:04.954Z,20.82
2018-09-23T12:42:33.005Z,19.40
2018-09-23T12:45:01.089Z,20.05
2018-09-23T12:47:29.148Z,22.10
2018-09-23T12:49:57.188Z,22.02
2018-09-23T12:52:25.263Z,19.75
2018-09-23T12:54:53.309Z,13.53
2018-09-23T12:57:21.345Z,5.90
2018-09-23T12:59:49.680Z,8.70
2018-09-23T13:02:17.734Z,7.53
2018-09-23T13:04:45.786Z,7.83
2018-09-23T13:07:13.832Z,8.40
2018-09-23T13:09:41.881Z,10.80
2018-09-23T13:12:09.925Z,9.48
2018-09-23T13:14:37.995Z,11.70
2018-09-23T13:17:06.056Z,18.42
2018-09-23T13:19:34.206Z,21.33
2018-09-23T13:22:02.201Z,20.23
2018-09-23T13:24:30.230Z,14.47
2018-09-23T13:26:58.283Z,8.40
2018-09-23T13:29:26.328Z,10.23
2018-09-23T13:31:54.361Z,9.38
2018-09-23T13:34:22.417Z,9.73
2018-09-23T13:36:50.508Z,11.80
2018-09-23T13:39:18.573Z,7.20
2018-09-23T13:41:46.620Z,10.65
2018-09-23T13:44:14.663Z,9.68
2018-09-23T13:46:42.734Z,10.55
2018-09-23T13:49:10.798Z,8.90
2018-09-23T13:51:38.846Z,9.35
2018-09-23T13:54:06.908Z,9.55
2018-09-23T13:56:34.960Z,8.83
2018-09-23T13:59:03.020Z,8.03
2018-09-23T14:01:31.108Z,8.50
2018-09-23T14:03:59.159Z,8.63
2018-09-23T14:06:27.184Z,8.58
2018-09-23T14:08:55.225Z,7.53
2018-09-23T14:11:23.304Z,6.05
2018-09-23T14:13:51.365Z,8.78
2018-09-23T14:16:19.436Z,7.47
2018-09-23T14:18:47.489Z,8.55
2018-09-23T14:21:16.248Z,8.50
2018-09-23T14:23:44.284Z,10.82
2018-09-23T14:26:12.383Z,10.00
2018-09-23T14:28:40.429Z,9.30
2018-09-23T14:31:08.469Z,7.20
2018-09-23T14:33:36.554Z,8.15
2018-09-23T14:36:04.589Z,8.60
2018-09-23T14:38:32.661Z,6.92
2018-09-23T14:41:00.708Z,7.05
2018-09-23T14:43:28.812Z,7.40
2018-09-23T14:45:57.057Z,8.75
2018-09-23T14:48:25.322Z,8.20
2018-09-23T14:50:53.741Z,7.17
2018-09-23T14:53:22.169Z,9.68
2018-09-23T14:55:50.220Z,8.80
2018-09-23T14:58:18.283Z,8.30
2018-09-23T15:00:46.321Z,8.58
2018-09-23T15:03:14.610Z,8.70
2018-09-23T15:05:42.662Z,7.87
2018-09-23T15:08:10.712Z,7.10
2018-09-23T15:10:38.765Z,7.37
2018-09-23T15:13:06.829Z,7.80
2018-09-23T15:15:34.913Z,7.40
2018-09-23T15:18:03.075Z,7.40
2018-09-23T15:20:31.141Z,8.73
2018-09-23T15:22:59.186Z,9.60
2018-09-23T15:25:27.245Z,10.90
2018-09-23T15:27:55.288Z,11.05
2018-09-23T15:30:23.532Z,10.43
2018-09-23T15:32:51.713Z,11.50
2018-09-23T15:35:19.729Z,10.15
2018-09-23T15:37:47.817Z,14.03
2018-09-23T15:40:15.942Z,14.07
2018-09-23T15:42:43.990Z,14.65
2018-09-23T15:45:12.044Z,16.75
2018-09-23T15:47:40.068Z,12.55
2018-09-23T15:50:08.115Z,12.65
2018-09-23T15:52:36.177Z,13.72
2018-09-23T15:55:04.250Z,14.20
2018-09-23T15:57:32.292Z,13.40
2018-09-23T16:00:00.345Z,15.38
2018-09-23T16:02:28.411Z,14.85
2018-09-23T16:04:56.448Z,14.30
2018-09-23T16:07:24.466Z,14.80
2018-09-23T16:09:52.497Z,15.15
2018-09-23T16:12:20.563Z,15.40
2018-09-23T16:14:48.641Z,15.10
2018-09-23T16:17:16.687Z,15.10
2018-09-23T16:19:44.708Z,15.15
2018-09-23T16:22:12.753Z,14.33
2018-09-23T16:24:40.842Z,13.58
2018-09-23T16:27:08.870Z,13.50
2018-09-23T16:29:36.892Z,14.15
2018-09-23T16:32:05.070Z,13.78
2018-09-23T16:34:32.997Z,14.75
2018-09-23T16:37:01.039Z,13.95
2018-09-23T16:39:29.066Z,13.20
2018-09-23T16:41:57.144Z,11.90
2018-09-23T16:44:25.181Z,10.30
2018-09-23T16:46:53.239Z,10.50
2018-09-23T16:49:21.268Z,10.53
2018-09-23T16:51:49.300Z,10.43
2018-09-23T16:54:17.405Z,10.45
2018-09-23T16:56:45.437Z,10.90
2018-09-23T16:59:13.476Z,11.03
2018-09-23T17:01:41.516Z,11.00
2018-09-23T17:04:09.569Z,11.50
2018-09-23T17:06:37.622Z,13.48
2018-09-23T17:09:07.557Z,11.60
2018-09-23T17:11:35.629Z,11.70
2018-09-23T17:14:03.682Z,13.45
2018-09-23T17:16:31.732Z,10.10
2018-09-23T17:18:59.785Z,10.70
2018-09-23T17:21:27.816Z,10.40
2018-09-23T17:23:56.057Z,9.30
2018-09-23T17:26:24.533Z,9.60
2018-09-23T17:28:53.095Z,8.60
2018-09-23T17:31:21.128Z,8.85
2018-09-23T17:33:49.203Z,8.58
2018-09-23T17:36:17.229Z,8.90
2018-09-23T17:38:45.324Z,8.55
2018-09-23T17:41:13.352Z,8.40
2018-09-23T17:43:41.377Z,8.53
2018-09-23T17:46:09.408Z,8.30
2018-09-23T17:48:37.457Z,7.37
2018-09-23T17:51:05.665Z,11.20
2018-09-23T17:53:33.717Z,8.68
2018-09-23T17:56:01.729Z,8.13
2018-09-23T17:58:29.752Z,7.22
2018-09-23T18:00:57.816Z,6.10
2018-09-23T18:03:25.839Z,7.87
2018-09-23T18:05:53.853Z,7.58
2018-09-23T18:08:21.890Z,9.55
2018-09-23T18:10:49.896Z,7.47
2018-09-23T18:13:18.095Z,7.50
2018-09-23T18:15:46.101Z,8.70
2018-09-23T18:18:14.153Z,8.18
2018-09-23T18:20:42.213Z,8.90
2018-09-23T18:23:10.243Z,7.20
2018-09-23T18:25:38.266Z,7.20
2018-09-23T18:28:06.281Z,7.65
2018-09-23T18:30:34.324Z,5.62
2018-09-23T18:33:02.369Z,8.87
2018-09-23T18:35:30.483Z,8.65
2018-09-23T18:37:58.515Z,8.30
2018-09-23T18:40:26.548Z,7.42
2018-09-23T18:42:54.613Z,9.85
2018-09-23T18:45:22.666Z,8.50
2018-09-23T18:47:50.704Z,8.08
2018-09-23T18:50:18.742Z,7.50
2018-09-23T18:52:46.772Z,7.83
2018-09-23T18:55:20.345Z,8.33
2018-09-23T18:57:48.348Z,8.83
2018-09-23T19:00:16.381Z,8.30
2018-09-23T19:02:44.429Z,8.13
2018-09-23T19:05:12.466Z,7.83
2018-09-23T19:07:40.571Z,6.58
2018-09-23T19:10:08.629Z,7.28
2018-09-23T19:12:36.676Z,7.83
2018-09-23T19:15:04.753Z,8.05
2018-09-23T19:17:32.814Z,7.05
2018-09-23T19:20:06.297Z,6.53
2018-09-23T19:22:39.823Z,8.03
2018-09-23T19:25:07.865Z,11.10
2018-09-23T19:27:35.905Z,10.05
2018-09-23T19:30:03.964Z,7.28
2018-09-23T19:32:32.073Z,8.80
2018-09-23T19:35:00.073Z,10.05
2018-09-23T19:37:28.120Z,7.07
2018-09-23T19:39:56.170Z,7.00
2018-09-23T19:42:24.229Z,13.62
2018-09-23T19:44:52.266Z,8.98
2018-09-23T19:47:20.317Z,8.18
2018-09-23T19:49:48.395Z,7.40
2018-09-23T19:52:16.443Z,6.28
2018-09-23T19:54:44.493Z,8.98
2018-09-23T19:57:12.536Z,6.60
2018-09-23T19:59:40.608Z,7.53
2018-09-23T20:02:08.694Z,6.60
2018-09-23T20:04:36.749Z,5.78
2018-09-23T20:07:04.879Z,8.98
2018-09-23T20:09:32.886Z,6.65
2018-09-23T20:12:00.956Z,5.72
2018-09-23T20:14:28.986Z,5.60
2018-09-23T20:16:57.040Z,7.45
2018-09-23T20:19:25.080Z,4.53
2018-09-23T20:21:53.135Z,6.95
2018-09-23T20:24:21.175Z,5.08
2018-09-23T20:26:50.235Z,5.90
2018-09-23T20:29:18.280Z,4.55
2018-09-23T20:31:46.308Z,6.67
2018-09-23T20:34:14.353Z,5.83
2018-09-23T20:36:42.367Z,6.03
2018-09-23T20:39:10.912Z,6.30
2018-09-23T20:41:38.924Z,4.67
2018-09-23T20:44:07.381Z,4.70
2018-09-23T20:46:35.413Z,7.47
2018-09-23T20:49:03.440Z,4.93
2018-09-23T20:51:31.488Z,4.75
2018-09-23T20:53:59.548Z,6.75
2018-09-23T20:56:27.579Z,6.17
2018-09-23T20:58:55.653Z,4.70
2018-09-23T21:01:23.698Z,3.93
2018-09-23T21:03:51.741Z,3.72
2018-09-23T21:06:19.868Z,7.58
2018-09-23T21:08:47.897Z,5.22
2018-09-23T21:11:15.940Z,7.72
2018-09-23T21:13:43.965Z,6.10
2018-09-23T21:16:12.001Z,5.22
2018-09-23T21:18:40.045Z,4.40
2018-09-23T21:21:08.082Z,6.45
2018-09-23T21:23:36.154Z,5.72
2018-09-23T21:26:04.176Z,6.58
2018-09-23T21:28:32.229Z,6.10
2018-09-23T21:31:00.288Z,5.63
2018-09-23T21:33:28.324Z,4.25
2018-09-23T21:35:56.355Z,7.03
2018-09-23T21:38:24.416Z,5.17
2018-09-23T21:40:52.433Z,5.30
2018-09-23T21:43:20.452Z,5.33
2018-09-23T21:45:48.484Z,5.30
2018-09-23T21:48:16.504Z,4.90
2018-09-23T21:50:44.524Z,3.20
2018-09-23T21:53:12.547Z,5.17
2018-09-23T21:55:40.560Z,5.08
2018-09-23T21:58:08.593Z,3.72
2018-09-23T22:00:41.753Z,3.43
2018-09-23T22:03:10.036Z,5.17
2018-09-23T22:05:38.317Z,5.15
2018-09-23T22:08:06.313Z,5.15
2018-09-23T22:10:34.316Z,4.08
2018-09-23T22:13:02.348Z,3.30
2018-09-23T22:15:30.368Z,3.00
2018-09-23T22:17:58.399Z,4.80
2018-09-23T22:20:26.946Z,4.80
2018-09-23T22:22:55.708Z,4.75
2018-09-23T22:25:24.016Z,4.27
2018-09-23T22:27:52.796Z,4.15
2018-09-23T22:30:21.194Z,3.40
2018-09-23T22:32:49.219Z,6.83
2018-09-23T22:35:17.264Z,4.73
2018-09-23T22:37:45.318Z,6.45
2018-09-23T22:40:13.336Z,4.55
2018-09-23T22:42:41.365Z,3.87
2018-09-23T22:45:09.406Z,4.30
2018-09-23T22:47:37.426Z,4.72
2018-09-23T22:50:05.764Z,3.62
2018-09-23T22:52:34.005Z,3.20
2018-09-23T22:55:02.033Z,6.00
2018-09-23T22:57:30.257Z,4.40
2018-09-23T22:59:58.279Z,7.60
2018-09-23T23:02:26.317Z,5.22
2018-09-23T23:04:54.363Z,4.20
2018-09-23T23:07:22.394Z,5.87
2018-09-23T23:09:50.435Z,6.03
2018-09-23T23:12:18.461Z,4.07
2018-09-23T23:14:46.493Z,5.97
2018-09-23T23:17:14.525Z,5.22
2018-09-23T23:19:42.585Z,4.03
2018-09-23T23:22:10.638Z,5.95
2018-09-23T23:24:38.664Z,6.00
2018-09-23T23:27:06.413Z,5.87
2018-09-23T23:29:34.453Z,4.87
2018-09-23T23:32:02.556Z,5.20
2018-09-23T23:34:30.596Z,4.70
2018-09-23T23:36:58.629Z,5.90
2018-09-23T23:39:26.661Z,4.75
2018-09-23T23:42:01.421Z,4.28
2018-09-23T23:44:29.474Z,7.87
2018-09-23T23:46:57.509Z,4.00
2018-09-23T23:49:25.849Z,4.47
2018-09-23T23:51:53.881Z,4.90
2018-09-23T23:54:21.919Z,4.67
2018-09-23T23:56:49.956Z,4.15
2018-09-23T23:59:18.001Z,3.83
